This demonstration page uses our WeatherBlox Daily Observations layout. Learn more.

38.88101, -77.10428

Hourly Observations for August 14, 2016

Temp ( °F °C ) Dew Point ( °F °C ) Humidity (%) Winds ( mph kmh ) Pressure ( in mb ) Visibility ( mi km ) Precip ( " mm )
12:52 am 00:52 Partly Cloudy 88 31.1 75 23.9 66 66 SW 10 17 29.94 1014 10 16.09344 0 0
1:52 am 01:52 Partly Cloudy 87 30.6 75 23.9 67 67 SW 8 13 29.94 1014 10 16.09344 0 0
2:52 am 02:52 Partly Cloudy 86 30 75 23.9 70 70 SW 8 13 29.94 1014 8 12.874752 0 0
3:52 am 03:52 Partly Cloudy 85 29.4 75 23.9 72 72 SSW 9 15 29.94 1014 8 12.874752 0 0
4:52 am 04:52 Mostly Clear 83 28.3 75 23.9 77 77 SSW 7 11 29.97 1015 7 11.265408 0 0
5:52 am 05:52 Partly Cloudy 82 27.8 75 23.9 79 79 SW 6 9 29.97 1015 7 11.265408 0 0
6:52 am 06:52 Mostly Sunny 82 27.8 76 24.4 82 82 S 6 9 30 1016 8 12.874752 0 0
7:52 am 07:52 Mostly Sunny 84 28.9 76 24.4 77 77 S 8 13 30 1016 8 12.874752 0 0
8:52 am 08:52 Partly Cloudy 87 30.6 77 25 72 72 SSE 7 11 30.03 1017 8 12.874752 0 0
9:52 am 09:52 Partly Cloudy 92 33.3 73 22.8 54 54 W 9 15 30.03 1017 9 14.484096 0 0
10:52 am 10:52 Partly Cloudy 95 35 70 21.1 44 44 WSW 8 13 30.03 1017 10 16.09344 0 0
11:52 am 11:52 Partly Cloudy 96 35.6 70 21.1 43 43 WSW 17 28 30.03 1017 10 16.09344 0 0
12:52 pm 12:52 Mostly Cloudy 98 36.7 71 21.7 42 42 W 10 17 30.03 1017 10 16.09344 0 0
1:52 pm 13:52 Mostly Cloudy 99 37.2 70 21.1 39 39 W 12 19 30.03 1017 10 16.09344 0 0
2:52 pm 14:52 Mostly Cloudy 100 37.8 69 20.6 37 37 SW 9 15 30 1016 10 16.09344 0 0
3:52 pm 15:52 Mostly Cloudy 97 36.1 69 20.6 40 40 NW 9 15 30 1016 10 16.09344 0 0
4:52 pm 16:52 Mostly Cloudy 97 36.1 72 22.2 45 45 W 14 22 30 1016 10 16.09344 0 0
5:52 pm 17:52 Partly Cloudy 97 36.1 71 21.7 43 43 WSW 8 13 30 1016 10 16.09344 0 0
6:52 pm 18:52 Mostly Cloudy 95 35 71 21.7 46 46 W 8 13 30 1016 10 16.09344 0 0
7:52 pm 19:52 Mostly Cloudy 93 33.9 73 22.8 52 52 WSW 16 26 30.03 1017 10 16.09344 0.001 0.001
8:29 pm 20:29 Mostly Cloudy 90 32.2 71 21.7 54 54 NW 16 26 30.06 1018 10 16.09344 0 0
8:52 pm 20:52 Mostly Cloudy 86 30 68 20 55 55 N 16 26 30.09 1019 10 16.09344 0 0
9:52 pm 21:52 Mostly Cloudy 83 28.3 69 20.6 63 63 NNE 6 9 30.06 1018 10 16.09344 0 0
10:52 pm 22:52 Mostly Cloudy 81 27.2 71 21.7 72 72 ENE 5 7 30.12 1020 9 14.484096 0 0
11:52 pm 23:52 Mostly Cloudy 81 27.2 72 22.2 74 74 ENE 5 7 30.12 1020 9 14.484096 0 0

Powered by AerisWeather